sensor_id;sensor_type;location;lat;lon;timestamp;temperature;humidity
26687;DHT22;14298;50.900;4.648;2023-02-22T00:02:25;5.20;97.10
26687;DHT22;14298;50.900;4.648;2023-02-22T00:04:55;5.20;97.10
26687;DHT22;14298;50.900;4.648;2023-02-22T00:07:24;5.20;97.10
26687;DHT22;14298;50.900;4.648;2023-02-22T00:09:52;5.20;97.10
26687;DHT22;14298;50.900;4.648;2023-02-22T00:12:20;5.20;97.10
26687;DHT22;14298;50.900;4.648;2023-02-22T00:14:49;5.20;97.10
26687;DHT22;14298;50.900;4.648;2023-02-22T00:17:17;5.30;97.10
26687;DHT22;14298;50.900;4.648;2023-02-22T00:19:48;5.40;97.10
26687;DHT22;14298;50.900;4.648;2023-02-22T00:22:16;5.40;97.10
26687;DHT22;14298;50.900;4.648;2023-02-22T00:24:45;5.40;97.10
26687;DHT22;14298;50.900;4.648;2023-02-22T00:27:15;5.30;97.10
26687;DHT22;14298;50.900;4.648;2023-02-22T00:29:46;5.30;97.10
26687;DHT22;14298;50.900;4.648;2023-02-22T00:32:15;5.30;97.10
26687;DHT22;14298;50.900;4.648;2023-02-22T00:34:43;5.30;97.10
26687;DHT22;14298;50.900;4.648;2023-02-22T00:37:12;5.30;97.10
26687;DHT22;14298;50.900;4.648;2023-02-22T00:39:40;5.30;97.10
26687;DHT22;14298;50.900;4.648;2023-02-22T00:42:08;5.40;97.10
26687;DHT22;14298;50.900;4.648;2023-02-22T00:44:36;5.40;97.10
26687;DHT22;14298;50.900;4.648;2023-02-22T00:47:05;5.30;97.10
26687;DHT22;14298;50.900;4.648;2023-02-22T00:49:34;5.30;97.10
26687;DHT22;14298;50.900;4.648;2023-02-22T00:52:03;5.30;97.10
26687;DHT22;14298;50.900;4.648;2023-02-22T00:54:31;5.30;97.10
26687;DHT22;14298;50.900;4.648;2023-02-22T00:57:00;5.30;97.10
26687;DHT22;14298;50.900;4.648;2023-02-22T00:59:29;5.20;97.10
26687;DHT22;14298;50.900;4.648;2023-02-22T01:01:57;5.10;97.10
26687;DHT22;14298;50.900;4.648;2023-02-22T01:04:26;5.10;97.10
26687;DHT22;14298;50.900;4.648;2023-02-22T01:06:54;5.00;97.10
26687;DHT22;14298;50.900;4.648;2023-02-22T01:09:22;4.90;97.10
26687;DHT22;14298;50.900;4.648;2023-02-22T01:11:54;4.90;97.10
26687;DHT22;14298;50.900;4.648;2023-02-22T01:14:24;4.90;97.10
26687;DHT22;14298;50.900;4.648;2023-02-22T01:16:56;4.80;97.10
26687;DHT22;14298;50.900;4.648;2023-02-22T01:19:24;4.80;97.10
26687;DHT22;14298;50.900;4.648;2023-02-22T01:21:53;4.80;97.10
26687;DHT22;14298;50.900;4.648;2023-02-22T01:24:21;4.70;97.10
26687;DHT22;14298;50.900;4.648;2023-02-22T01:26:51;4.60;97.10
26687;DHT22;14298;50.900;4.648;2023-02-22T01:29:19;4.60;97.10
26687;DHT22;14298;50.900;4.648;2023-02-22T01:31:53;4.60;97.10
26687;DHT22;14298;50.900;4.648;2023-02-22T01:34:23;4.60;97.10
26687;DHT22;14298;50.900;4.648;2023-02-22T01:36:52;4.50;97.10
26687;DHT22;14298;50.900;4.648;2023-02-22T01:39:20;4.50;97.10
26687;DHT22;14298;50.900;4.648;2023-02-22T01:41:49;4.40;97.10
26687;DHT22;14298;50.900;4.648;2023-02-22T01:46:57;4.50;97.10
26687;DHT22;14298;50.900;4.648;2023-02-22T01:49:32;4.50;97.10
26687;DHT22;14298;50.900;4.648;2023-02-22T01:51:59;4.50;97.10
26687;DHT22;14298;50.900;4.648;2023-02-22T01:54:38;4.40;97.10
26687;DHT22;14298;50.900;4.648;2023-02-22T01:57:19;4.30;97.10
26687;DHT22;14298;50.900;4.648;2023-02-22T01:59:39;4.20;97.10
26687;DHT22;14298;50.900;4.648;2023-02-22T02:02:09;4.10;97.10
26687;DHT22;14298;50.900;4.648;2023-02-22T02:04:38;4.10;97.10
26687;DHT22;14298;50.900;4.648;2023-02-22T02:07:10;4.00;97.10
26687;DHT22;14298;50.900;4.648;2023-02-22T02:09:59;4.00;97.10
26687;DHT22;14298;50.900;4.648;2023-02-22T02:12:30;4.00;97.10
26687;DHT22;14298;50.900;4.648;2023-02-22T02:15:19;4.00;97.10
26687;DHT22;14298;50.900;4.648;2023-02-22T02:17:49;4.00;97.10
26687;DHT22;14298;50.900;4.648;2023-02-22T02:26:38;3.80;97.10
26687;DHT22;14298;50.900;4.648;2023-02-22T02:34:49;3.70;97.10
26687;DHT22;14298;50.900;4.648;2023-02-22T02:40:29;3.70;97.10
26687;DHT22;14298;50.900;4.648;2023-02-22T02:43:01;3.70;97.10
26687;DHT22;14298;50.900;4.648;2023-02-22T02:48:32;3.70;97.10
26687;DHT22;14298;50.900;4.648;2023-02-22T02:51:03;3.70;97.10
26687;DHT22;14298;50.900;4.648;2023-02-22T02:53:35;3.60;97.10
26687;DHT22;14298;50.900;4.648;2023-02-22T02:56:04;3.60;97.10
26687;DHT22;14298;50.900;4.648;2023-02-22T02:58:45;3.60;97.10
26687;DHT22;14298;50.900;4.648;2023-02-22T03:01:03;3.60;97.10
26687;DHT22;14298;50.900;4.648;2023-02-22T03:06:45;3.60;97.10
26687;DHT22;14298;50.900;4.648;2023-02-22T03:11:54;3.40;97.10
26687;DHT22;14298;50.900;4.648;2023-02-22T03:17:36;3.30;97.10
26687;DHT22;14298;50.900;4.648;2023-02-22T03:20:17;3.20;97.10
26687;DHT22;14298;50.900;4.648;2023-02-22T03:22:54;3.20;97.10
26687;DHT22;14298;50.900;4.648;2023-02-22T03:25:21;3.20;97.10
26687;DHT22;14298;50.900;4.648;2023-02-22T03:27:53;3.20;97.10
26687;DHT22;14298;50.900;4.648;2023-02-22T03:30:35;3.20;97.10
26687;DHT22;14298;50.900;4.648;2023-02-22T03:33:03;3.20;97.10
26687;DHT22;14298;50.900;4.648;2023-02-22T03:35:34;3.20;97.10
26687;DHT22;14298;50.900;4.648;2023-02-22T03:38:06;3.20;97.10
26687;DHT22;14298;50.900;4.648;2023-02-22T03:40:44;3.20;97.10
26687;DHT22;14298;50.900;4.648;2023-02-22T03:43:15;3.20;97.10
26687;DHT22;14298;50.900;4.648;2023-02-22T03:45:46;3.20;97.10
26687;DHT22;14298;50.900;4.648;2023-02-22T03:48:30;3.10;97.10
26687;DHT22;14298;50.900;4.648;2023-02-22T03:50:56;3.20;97.10
26687;DHT22;14298;50.900;4.648;2023-02-22T03:53:24;3.20;97.10
26687;DHT22;14298;50.900;4.648;2023-02-22T03:55:55;3.20;97.10
26687;DHT22;14298;50.900;4.648;2023-02-22T03:58:26;3.20;97.10
26687;DHT22;14298;50.900;4.648;2023-02-22T04:01:15;3.20;97.10
26687;DHT22;14298;50.900;4.648;2023-02-22T04:03:43;3.20;97.10
26687;DHT22;14298;50.900;4.648;2023-02-22T04:06:12;3.10;97.10
26687;DHT22;14298;50.900;4.648;2023-02-22T04:08:40;3.10;97.10
26687;DHT22;14298;50.900;4.648;2023-02-22T04:11:10;3.10;97.10
26687;DHT22;14298;50.900;4.648;2023-02-22T04:13:39;3.10;97.10
26687;DHT22;14298;50.900;4.648;2023-02-22T04:16:07;3.10;97.10
26687;DHT22;14298;50.900;4.648;2023-02-22T04:18:35;3.10;97.10
26687;DHT22;14298;50.900;4.648;2023-02-22T04:21:04;3.10;97.10
26687;DHT22;14298;50.900;4.648;2023-02-22T04:23:32;3.10;97.10
26687;DHT22;14298;50.900;4.648;2023-02-22T04:26:01;3.10;97.10
26687;DHT22;14298;50.900;4.648;2023-02-22T04:28:29;3.10;97.10
26687;DHT22;14298;50.900;4.648;2023-02-22T04:30:58;3.10;97.10
26687;DHT22;14298;50.900;4.648;2023-02-22T04:33:26;3.10;97.10
26687;DHT22;14298;50.900;4.648;2023-02-22T04:35:54;3.10;97.10
26687;DHT22;14298;50.900;4.648;2023-02-22T04:38:24;3.10;97.10
26687;DHT22;14298;50.900;4.648;2023-02-22T04:40:53;3.10;97.10
26687;DHT22;14298;50.900;4.648;2023-02-22T04:43:22;3.20;97.10
26687;DHT22;14298;50.900;4.648;2023-02-22T04:46:10;3.20;97.10
26687;DHT22;14298;50.900;4.648;2023-02-22T04:48:38;3.10;97.10
26687;DHT22;14298;50.900;4.648;2023-02-22T04:51:07;3.10;97.10
26687;DHT22;14298;50.900;4.648;2023-02-22T04:53:36;3.20;97.10
26687;DHT22;14298;50.900;4.648;2023-02-22T04:56:05;3.20;97.10
26687;DHT22;14298;50.900;4.648;2023-02-22T04:58:33;3.10;97.10
26687;DHT22;14298;50.900;4.648;2023-02-22T05:01:02;3.20;97.10
26687;DHT22;14298;50.900;4.648;2023-02-22T05:03:30;3.20;97.10
26687;DHT22;14298;50.900;4.648;2023-02-22T05:05:58;3.20;97.10
26687;DHT22;14298;50.900;4.648;2023-02-22T05:08:27;3.20;97.10
26687;DHT22;14298;50.900;4.648;2023-02-22T05:10:55;3.20;97.10
26687;DHT22;14298;50.900;4.648;2023-02-22T05:13:24;3.30;97.10
26687;DHT22;14298;50.900;4.648;2023-02-22T05:15:52;3.30;97.10
26687;DHT22;14298;50.900;4.648;2023-02-22T05:18:21;3.30;97.10
26687;DHT22;14298;50.900;4.648;2023-02-22T05:20:49;3.30;97.10
26687;DHT22;14298;50.900;4.648;2023-02-22T05:23:17;3.30;97.10
26687;DHT22;14298;50.900;4.648;2023-02-22T05:25:46;3.30;97.10
26687;DHT22;14298;50.900;4.648;2023-02-22T05:28:15;3.30;97.10
26687;DHT22;14298;50.900;4.648;2023-02-22T05:30:44;3.40;97.10
26687;DHT22;14298;50.900;4.648;2023-02-22T05:33:12;3.40;97.10
26687;DHT22;14298;50.900;4.648;2023-02-22T05:35:40;3.40;97.10
26687;DHT22;14298;50.900;4.648;2023-02-22T05:38:11;3.30;97.10
26687;DHT22;14298;50.900;4.648;2023-02-22T05:40:42;3.30;97.10
26687;DHT22;14298;50.900;4.648;2023-02-22T05:43:10;3.30;97.10
26687;DHT22;14298;50.900;4.648;2023-02-22T05:45:38;3.20;97.10
26687;DHT22;14298;50.900;4.648;2023-02-22T05:48:07;3.20;97.10
26687;DHT22;14298;50.900;4.648;2023-02-22T05:50:35;3.20;97.10
26687;DHT22;14298;50.900;4.648;2023-02-22T05:53:04;3.10;97.10
26687;DHT22;14298;50.900;4.648;2023-02-22T05:55:32;3.10;97.10
26687;DHT22;14298;50.900;4.648;2023-02-22T05:58:00;3.10;97.10
26687;DHT22;14298;50.900;4.648;2023-02-22T06:00:31;3.20;97.10
26687;DHT22;14298;50.900;4.648;2023-02-22T06:03:07;3.10;97.10
26687;DHT22;14298;50.900;4.648;2023-02-22T06:05:30;3.10;97.10
26687;DHT22;14298;50.900;4.648;2023-02-22T06:08:00;3.10;97.10
26687;DHT22;14298;50.900;4.648;2023-02-22T06:10:29;3.20;97.10
26687;DHT22;14298;50.900;4.648;2023-02-22T06:12:58;3.20;97.10
26687;DHT22;14298;50.900;4.648;2023-02-22T06:15:27;3.20;97.10
26687;DHT22;14298;50.900;4.648;2023-02-22T06:17:56;3.20;97.10
26687;DHT22;14298;50.900;4.648;2023-02-22T06:20:27;3.20;97.10
26687;DHT22;14298;50.900;4.648;2023-02-22T06:23:15;3.20;97.10
26687;DHT22;14298;50.900;4.648;2023-02-22T06:25:43;3.20;97.10
26687;DHT22;14298;50.900;4.648;2023-02-22T06:28:11;3.20;97.10
26687;DHT22;14298;50.900;4.648;2023-02-22T06:30:40;3.20;97.10
26687;DHT22;14298;50.900;4.648;2023-02-22T06:33:10;3.10;97.10
26687;DHT22;14298;50.900;4.648;2023-02-22T06:35:38;3.20;97.10
26687;DHT22;14298;50.900;4.648;2023-02-22T06:38:07;3.20;97.10
26687;DHT22;14298;50.900;4.648;2023-02-22T06:40:36;3.30;97.10
26687;DHT22;14298;50.900;4.648;2023-02-22T06:43:04;3.30;97.10
26687;DHT22;14298;50.900;4.648;2023-02-22T06:45:32;3.40;97.10
26687;DHT22;14298;50.900;4.648;2023-02-22T06:48:01;3.40;97.10
26687;DHT22;14298;50.900;4.648;2023-02-22T06:50:30;3.50;97.10
26687;DHT22;14298;50.900;4.648;2023-02-22T06:52:58;3.50;97.10
26687;DHT22;14298;50.900;4.648;2023-02-22T06:55:29;3.50;97.10
26687;DHT22;14298;50.900;4.648;2023-02-22T06:57:58;3.60;97.10
26687;DHT22;14298;50.900;4.648;2023-02-22T07:00:28;3.60;97.10
26687;DHT22;14298;50.900;4.648;2023-02-22T07:02:58;3.60;97.10
26687;DHT22;14298;50.900;4.648;2023-02-22T07:05:27;3.60;97.10
26687;DHT22;14298;50.900;4.648;2023-02-22T07:08:01;3.60;97.10
26687;DHT22;14298;50.900;4.648;2023-02-22T07:10:32;3.60;97.10
26687;DHT22;14298;50.900;4.648;2023-02-22T07:13:01;3.60;97.10
26687;DHT22;14298;50.900;4.648;2023-02-22T07:15:31;3.50;97.10
26687;DHT22;14298;50.900;4.648;2023-02-22T07:18:00;3.50;97.10
26687;DHT22;14298;50.900;4.648;2023-02-22T07:20:48;3.50;97.10
26687;DHT22;14298;50.900;4.648;2023-02-22T07:23:17;3.60;97.10
26687;DHT22;14298;50.900;4.648;2023-02-22T07:25:45;3.60;97.10
26687;DHT22;14298;50.900;4.648;2023-02-22T07:28:14;3.70;97.10
26687;DHT22;14298;50.900;4.648;2023-02-22T07:30:42;3.70;97.10
26687;DHT22;14298;50.900;4.648;2023-02-22T07:33:12;3.60;97.10
26687;DHT22;14298;50.900;4.648;2023-02-22T07:35:59;3.70;97.10
26687;DHT22;14298;50.900;4.648;2023-02-22T07:38:28;3.80;97.10
26687;DHT22;14298;50.900;4.648;2023-02-22T07:40:56;3.80;97.10
26687;DHT22;14298;50.900;4.648;2023-02-22T07:43:26;3.90;97.10
26687;DHT22;14298;50.900;4.648;2023-02-22T07:45:57;4.00;97.10
26687;DHT22;14298;50.900;4.648;2023-02-22T07:48:29;4.10;97.10
26687;DHT22;14298;50.900;4.648;2023-02-22T07:50:58;4.20;97.10
26687;DHT22;14298;50.900;4.648;2023-02-22T07:53:29;4.30;97.10
26687;DHT22;14298;50.900;4.648;2023-02-22T07:56:17;4.50;97.10
26687;DHT22;14298;50.900;4.648;2023-02-22T07:58:45;4.50;97.10
26687;DHT22;14298;50.900;4.648;2023-02-22T08:01:14;4.70;97.10
26687;DHT22;14298;50.900;4.648;2023-02-22T08:03:42;4.70;97.10
26687;DHT22;14298;50.900;4.648;2023-02-22T08:06:12;4.90;97.10
26687;DHT22;14298;50.900;4.648;2023-02-22T08:08:41;5.10;97.10
26687;DHT22;14298;50.900;4.648;2023-02-22T08:11:09;5.30;97.10
26687;DHT22;14298;50.900;4.648;2023-02-22T08:13:38;5.50;97.10
26687;DHT22;14298;50.900;4.648;2023-02-22T08:16:06;5.70;97.10
26687;DHT22;14298;50.900;4.648;2023-02-22T08:18:35;5.90;97.10
26687;DHT22;14298;50.900;4.648;2023-02-22T08:21:05;6.20;97.10
26687;DHT22;14298;50.900;4.648;2023-02-22T08:23:33;6.40;97.10
26687;DHT22;14298;50.900;4.648;2023-02-22T08:26:10;6.40;97.10
26687;DHT22;14298;50.900;4.648;2023-02-22T08:28:41;6.50;97.10
26687;DHT22;14298;50.900;4.648;2023-02-22T08:31:10;6.50;97.10
26687;DHT22;14298;50.900;4.648;2023-02-22T08:33:38;6.60;97.10
26687;DHT22;14298;50.900;4.648;2023-02-22T08:36:08;6.70;97.10
26687;DHT22;14298;50.900;4.648;2023-02-22T08:38:36;6.80;97.10
26687;DHT22;14298;50.900;4.648;2023-02-22T08:41:04;7.00;97.10
26687;DHT22;14298;50.900;4.648;2023-02-22T08:43:33;7.00;97.10
26687;DHT22;14298;50.900;4.648;2023-02-22T08:46:01;7.10;97.10
26687;DHT22;14298;50.900;4.648;2023-02-22T08:48:29;7.30;97.10
26687;DHT22;14298;50.900;4.648;2023-02-22T08:50:58;7.50;97.10
26687;DHT22;14298;50.900;4.648;2023-02-22T08:53:26;7.80;97.10
26687;DHT22;14298;50.900;4.648;2023-02-22T08:55:54;8.00;97.10
26687;DHT22;14298;50.900;4.648;2023-02-22T08:58:23;8.30;97.10
26687;DHT22;14298;50.900;4.648;2023-02-22T09:00:51;8.60;97.10
26687;DHT22;14298;50.900;4.648;2023-02-22T09:03:20;8.80;97.10
26687;DHT22;14298;50.900;4.648;2023-02-22T09:05:48;9.00;97.10
26687;DHT22;14298;50.900;4.648;2023-02-22T09:08:17;9.00;97.10
26687;DHT22;14298;50.900;4.648;2023-02-22T09:10:45;9.00;97.10
26687;DHT22;14298;50.900;4.648;2023-02-22T09:13:13;8.90;97.10
26687;DHT22;14298;50.900;4.648;2023-02-22T09:15:42;9.00;97.10
26687;DHT22;14298;50.900;4.648;2023-02-22T09:18:12;9.20;97.10
26687;DHT22;14298;50.900;4.648;2023-02-22T09:20:41;9.40;97.10
26687;DHT22;14298;50.900;4.648;2023-02-22T09:23:09;9.50;97.10
26687;DHT22;14298;50.900;4.648;2023-02-22T09:25:38;9.40;97.10
26687;DHT22;14298;50.900;4.648;2023-02-22T09:28:07;9.30;97.10
26687;DHT22;14298;50.900;4.648;2023-02-22T09:30:36;9.20;97.10
26687;DHT22;14298;50.900;4.648;2023-02-22T09:33:09;9.20;97.10
26687;DHT22;14298;50.900;4.648;2023-02-22T09:35:39;9.10;97.10
26687;DHT22;14298;50.900;4.648;2023-02-22T09:38:15;9.00;97.10
26687;DHT22;14298;50.900;4.648;2023-02-22T09:46:38;8.90;97.10
26687;DHT22;14298;50.900;4.648;2023-02-22T09:49:32;9.00;97.10
26687;DHT22;14298;50.900;4.648;2023-02-22T09:52:21;9.10;97.10
26687;DHT22;14298;50.900;4.648;2023-02-22T09:55:08;9.10;97.10
26687;DHT22;14298;50.900;4.648;2023-02-22T09:57:39;9.10;97.10
26687;DHT22;14298;50.900;4.648;2023-02-22T10:00:23;9.20;97.10
26687;DHT22;14298;50.900;4.648;2023-02-22T10:06:10;9.20;97.10
26687;DHT22;14298;50.900;4.648;2023-02-22T10:08:39;9.00;97.10
26687;DHT22;14298;50.900;4.648;2023-02-22T10:25:38;8.60;97.10
26687;DHT22;14298;50.900;4.648;2023-02-22T10:28:20;8.70;97.10
26687;DHT22;14298;50.900;4.648;2023-02-22T10:30:54;8.80;97.10
26687;DHT22;14298;50.900;4.648;2023-02-22T10:33:45;8.90;97.10
26687;DHT22;14298;50.900;4.648;2023-02-22T10:36:17;8.90;97.10
26687;DHT22;14298;50.900;4.648;2023-02-22T10:39:10;9.00;97.10
26687;DHT22;14298;50.900;4.648;2023-02-22T10:41:37;9.00;97.10
26687;DHT22;14298;50.900;4.648;2023-02-22T10:44:01;9.00;97.10
26687;DHT22;14298;50.900;4.648;2023-02-22T10:46:31;9.20;97.10
26687;DHT22;14298;50.900;4.648;2023-02-22T10:49:03;9.20;97.10
26687;DHT22;14298;50.900;4.648;2023-02-22T10:51:33;9.40;97.10
26687;DHT22;14298;50.900;4.648;2023-02-22T10:54:27;9.40;97.10
26687;DHT22;14298;50.900;4.648;2023-02-22T10:56:54;9.30;97.10
26687;DHT22;14298;50.900;4.648;2023-02-22T10:59:32;9.30;97.10
26687;DHT22;14298;50.900;4.648;2023-02-22T11:02:16;9.50;97.10
26687;DHT22;14298;50.900;4.648;2023-02-22T11:04:52;9.70;97.10
26687;DHT22;14298;50.900;4.648;2023-02-22T11:07:24;9.70;97.10
26687;DHT22;14298;50.900;4.648;2023-02-22T11:10:14;9.90;97.10
26687;DHT22;14298;50.900;4.648;2023-02-22T11:12:42;10.20;97.10
26687;DHT22;14298;50.900;4.648;2023-02-22T11:17:52;10.40;97.10
26687;DHT22;14298;50.900;4.648;2023-02-22T11:20:30;10.40;97.10
26687;DHT22;14298;50.900;4.648;2023-02-22T11:23:02;10.50;97.10
26687;DHT22;14298;50.900;4.648;2023-02-22T11:25:34;10.50;97.10
26687;DHT22;14298;50.900;4.648;2023-02-22T11:28:11;10.60;97.10
26687;DHT22;14298;50.900;4.648;2023-02-22T11:30:43;10.80;97.10
26687;DHT22;14298;50.900;4.648;2023-02-22T11:33:31;10.90;97.10
26687;DHT22;14298;50.900;4.648;2023-02-22T11:36:02;11.10;97.10
26687;DHT22;14298;50.900;4.648;2023-02-22T11:38:34;11.30;97.10
26687;DHT22;14298;50.900;4.648;2023-02-22T11:41:18;11.40;97.10
26687;DHT22;14298;50.900;4.648;2023-02-22T11:43:50;11.40;97.10
26687;DHT22;14298;50.900;4.648;2023-02-22T11:46:24;11.30;97.10
26687;DHT22;14298;50.900;4.648;2023-02-22T11:49:12;11.40;97.10
26687;DHT22;14298;50.900;4.648;2023-02-22T12:00:56;11.20;97.10
26687;DHT22;14298;50.900;4.648;2023-02-22T12:03:39;11.30;97.10
26687;DHT22;14298;50.900;4.648;2023-02-22T12:06:19;11.30;97.10
26687;DHT22;14298;50.900;4.648;2023-02-22T12:08:51;11.40;97.10
26687;DHT22;14298;50.900;4.648;2023-02-22T12:11:20;11.50;97.10
26687;DHT22;14298;50.900;4.648;2023-02-22T12:14:00;11.40;97.10
26687;DHT22;14298;50.900;4.648;2023-02-22T12:16:37;11.50;97.10
26687;DHT22;14298;50.900;4.648;2023-02-22T12:19:38;11.50;97.10
26687;DHT22;14298;50.900;4.648;2023-02-22T12:22:34;11.60;97.10
26687;DHT22;14298;50.900;4.648;2023-02-22T12:28:10;11.80;97.10
26687;DHT22;14298;50.900;4.648;2023-02-22T12:30:40;11.90;97.10
26687;DHT22;14298;50.900;4.648;2023-02-22T12:33:11;12.00;97.10
26687;DHT22;14298;50.900;4.648;2023-02-22T12:35:43;12.20;97.10
26687;DHT22;14298;50.900;4.648;2023-02-22T12:41:12;12.30;97.10
26687;DHT22;14298;50.900;4.648;2023-02-22T12:43:49;12.40;97.10
26687;DHT22;14298;50.900;4.648;2023-02-22T12:46:39;12.30;97.10
26687;DHT22;14298;50.900;4.648;2023-02-22T12:52:06;12.30;97.10
26687;DHT22;14298;50.900;4.648;2023-02-22T12:55:28;12.40;97.10
26687;DHT22;14298;50.900;4.648;2023-02-22T13:00:39;12.50;97.10
26687;DHT22;14298;50.900;4.648;2023-02-22T13:06:48;12.50;97.10
26687;DHT22;14298;50.900;4.648;2023-02-22T13:08:36;12.50;97.10
26687;DHT22;14298;50.900;4.648;2023-02-22T13:11:27;12.50;97.10
26687;DHT22;14298;50.900;4.648;2023-02-22T13:16:46;12.30;97.10
26687;DHT22;14298;50.900;4.648;2023-02-22T13:21:52;12.50;97.10
26687;DHT22;14298;50.900;4.648;2023-02-22T13:24:24;12.60;97.10
26687;DHT22;14298;50.900;4.648;2023-02-22T13:29:46;12.70;97.10
26687;DHT22;14298;50.900;4.648;2023-02-22T13:41:21;12.40;97.10
26687;DHT22;14298;50.900;4.648;2023-02-22T13:44:07;12.50;97.10
26687;DHT22;14298;50.900;4.648;2023-02-22T13:46:39;12.50;97.10
26687;DHT22;14298;50.900;4.648;2023-02-22T13:51:50;12.40;97.10
26687;DHT22;14298;50.900;4.648;2023-02-22T13:57:21;12.40;97.10
26687;DHT22;14298;50.900;4.648;2023-02-22T13:59:48;12.30;97.10
26687;DHT22;14298;50.900;4.648;2023-02-22T14:02:55;12.30;97.10
26687;DHT22;14298;50.900;4.648;2023-02-22T14:04:58;12.30;97.10
26687;DHT22;14298;50.900;4.648;2023-02-22T14:09:59;12.30;97.10
26687;DHT22;14298;50.900;4.648;2023-02-22T14:15:14;12.30;97.10
26687;DHT22;14298;50.900;4.648;2023-02-22T14:17:45;12.40;97.10
26687;DHT22;14298;50.900;4.648;2023-02-22T14:22:50;12.40;97.10
26687;DHT22;14298;50.900;4.648;2023-02-22T14:25:34;12.30;97.10
26687;DHT22;14298;50.900;4.648;2023-02-22T14:28:09;12.20;97.10
26687;DHT22;14298;50.900;4.648;2023-02-22T14:30:38;12.30;97.10
26687;DHT22;14298;50.900;4.648;2023-02-22T14:36:13;12.20;97.10
26687;DHT22;14298;50.900;4.648;2023-02-22T14:38:43;12.10;97.10
26687;DHT22;14298;50.900;4.648;2023-02-22T14:41:13;12.00;97.10
26687;DHT22;14298;50.900;4.648;2023-02-22T14:43:43;12.00;97.10
26687;DHT22;14298;50.900;4.648;2023-02-22T14:46:16;11.90;97.10
26687;DHT22;14298;50.900;4.648;2023-02-22T14:48:46;11.80;97.10
26687;DHT22;14298;50.900;4.648;2023-02-22T14:51:32;11.90;97.10
26687;DHT22;14298;50.900;4.648;2023-02-22T14:54:27;11.90;97.10
26687;DHT22;14298;50.900;4.648;2023-02-22T14:57:02;11.80;97.10
26687;DHT22;14298;50.900;4.648;2023-02-22T15:02:59;11.80;97.10
26687;DHT22;14298;50.900;4.648;2023-02-22T15:05:34;11.70;97.10
26687;DHT22;14298;50.900;4.648;2023-02-22T15:08:07;11.60;97.10
26687;DHT22;14298;50.900;4.648;2023-02-22T15:10:41;11.50;97.10
26687;DHT22;14298;50.900;4.648;2023-02-22T15:13:19;11.50;97.10
26687;DHT22;14298;50.900;4.648;2023-02-22T15:18:43;11.40;97.10
26687;DHT22;14298;50.900;4.648;2023-02-22T15:21:34;11.30;97.10
26687;DHT22;14298;50.900;4.648;2023-02-22T15:24:26;11.30;97.10
26687;DHT22;14298;50.900;4.648;2023-02-22T15:27:01;11.20;97.10
26687;DHT22;14298;50.900;4.648;2023-02-22T15:29:31;11.20;97.10
26687;DHT22;14298;50.900;4.648;2023-02-22T15:31:57;11.10;97.10
26687;DHT22;14298;50.900;4.648;2023-02-22T15:34:30;11.10;97.10
26687;DHT22;14298;50.900;4.648;2023-02-22T15:40:04;11.10;97.10
26687;DHT22;14298;50.900;4.648;2023-02-22T15:42:41;11.00;97.10
26687;DHT22;14298;50.900;4.648;2023-02-22T15:45:08;11.00;97.10
26687;DHT22;14298;50.900;4.648;2023-02-22T15:47:35;10.90;97.10
26687;DHT22;14298;50.900;4.648;2023-02-22T15:53:06;10.90;97.10
26687;DHT22;14298;50.900;4.648;2023-02-22T15:55:37;10.90;97.10
26687;DHT22;14298;50.900;4.648;2023-02-22T15:58:18;10.90;97.10
26687;DHT22;14298;50.900;4.648;2023-02-22T16:00:56;10.90;97.10
26687;DHT22;14298;50.900;4.648;2023-02-22T16:03:21;10.90;97.10
26687;DHT22;14298;50.900;4.648;2023-02-22T16:05:52;10.80;97.10
26687;DHT22;14298;50.900;4.648;2023-02-22T16:08:32;10.80;97.10
26687;DHT22;14298;50.900;4.648;2023-02-22T16:11:06;10.70;97.10
26687;DHT22;14298;50.900;4.648;2023-02-22T16:13:36;10.60;97.10
26687;DHT22;14298;50.900;4.648;2023-02-22T16:19:26;10.60;97.10
26687;DHT22;14298;50.900;4.648;2023-02-22T16:22:01;10.60;97.10
26687;DHT22;14298;50.900;4.648;2023-02-22T16:24:34;10.60;97.10
26687;DHT22;14298;50.900;4.648;2023-02-22T16:29:59;10.50;97.10
26687;DHT22;14298;50.900;4.648;2023-02-22T16:32:14;10.40;97.10
26687;DHT22;14298;50.900;4.648;2023-02-22T16:34:42;10.40;97.10
26687;DHT22;14298;50.900;4.648;2023-02-22T16:37:18;10.30;97.10
26687;DHT22;14298;50.900;4.648;2023-02-22T16:39:50;10.20;97.10
26687;DHT22;14298;50.900;4.648;2023-02-22T16:42:18;10.20;97.10
26687;DHT22;14298;50.900;4.648;2023-02-22T16:44:50;10.20;97.10
26687;DHT22;14298;50.900;4.648;2023-02-22T16:47:19;10.30;97.10
26687;DHT22;14298;50.900;4.648;2023-02-22T16:49:48;10.30;97.10
26687;DHT22;14298;50.900;4.648;2023-02-22T16:52:19;10.20;97.10
26687;DHT22;14298;50.900;4.648;2023-02-22T16:54:48;10.20;97.10
26687;DHT22;14298;50.900;4.648;2023-02-22T16:57:21;10.20;97.10
26687;DHT22;14298;50.900;4.648;2023-02-22T16:59:51;10.20;97.10
26687;DHT22;14298;50.900;4.648;2023-02-22T17:02:21;10.10;97.10
26687;DHT22;14298;50.900;4.648;2023-02-22T17:04:50;10.10;97.10
26687;DHT22;14298;50.900;4.648;2023-02-22T17:07:20;10.00;97.10
26687;DHT22;14298;50.900;4.648;2023-02-22T17:09:54;10.00;97.10
26687;DHT22;14298;50.900;4.648;2023-02-22T17:12:25;9.90;97.10
26687;DHT22;14298;50.900;4.648;2023-02-22T17:14:54;9.90;97.10
26687;DHT22;14298;50.900;4.648;2023-02-22T17:17:23;9.90;97.10
26687;DHT22;14298;50.900;4.648;2023-02-22T17:19:53;9.80;97.10
26687;DHT22;14298;50.900;4.648;2023-02-22T17:22:22;9.80;97.10
26687;DHT22;14298;50.900;4.648;2023-02-22T17:24:50;9.80;97.10
26687;DHT22;14298;50.900;4.648;2023-02-22T17:27:18;9.80;97.10
26687;DHT22;14298;50.900;4.648;2023-02-22T17:29:47;9.80;97.10
26687;DHT22;14298;50.900;4.648;2023-02-22T17:32:16;9.80;97.10
26687;DHT22;14298;50.900;4.648;2023-02-22T17:34:44;9.70;97.10
26687;DHT22;14298;50.900;4.648;2023-02-22T17:37:12;9.70;97.10
26687;DHT22;14298;50.900;4.648;2023-02-22T17:39:41;9.80;97.10
26687;DHT22;14298;50.900;4.648;2023-02-22T17:42:09;9.80;97.10
26687;DHT22;14298;50.900;4.648;2023-02-22T17:44:37;9.70;97.10
26687;DHT22;14298;50.900;4.648;2023-02-22T17:47:06;9.80;97.10
26687;DHT22;14298;50.900;4.648;2023-02-22T17:49:34;9.70;97.10
26687;DHT22;14298;50.900;4.648;2023-02-22T17:52:03;9.70;97.10
26687;DHT22;14298;50.900;4.648;2023-02-22T17:54:51;9.70;97.10
26687;DHT22;14298;50.900;4.648;2023-02-22T17:57:20;9.70;97.10
26687;DHT22;14298;50.900;4.648;2023-02-22T17:59:48;9.70;97.10
26687;DHT22;14298;50.900;4.648;2023-02-22T18:02:17;9.70;97.10
26687;DHT22;14298;50.900;4.648;2023-02-22T18:04:45;9.70;97.10
26687;DHT22;14298;50.900;4.648;2023-02-22T18:07:13;9.60;97.10
26687;DHT22;14298;50.900;4.648;2023-02-22T18:09:43;9.60;97.10
26687;DHT22;14298;50.900;4.648;2023-02-22T18:12:12;9.60;97.10
26687;DHT22;14298;50.900;4.648;2023-02-22T18:14:40;9.50;97.10
26687;DHT22;14298;50.900;4.648;2023-02-22T18:17:08;9.50;97.10
26687;DHT22;14298;50.900;4.648;2023-02-22T18:19:36;9.50;97.10
26687;DHT22;14298;50.900;4.648;2023-02-22T18:22:05;9.50;97.10
26687;DHT22;14298;50.900;4.648;2023-02-22T18:24:34;9.50;97.10